sensor_id;sensor_type;location;lat;lon;timestamp;pressure;altitude;pressure_sealevel;temperature;humidity
70217;BME280;65567;55.684;37.570;2023-07-31T00:00:34;98382.91;;;20.65;49.28
70217;BME280;65567;55.684;37.570;2023-07-31T00:03:00;98384.91;;;20.63;49.71
70217;BME280;65567;55.684;37.570;2023-07-31T00:05:26;98389.91;;;20.66;49.45
70217;BME280;65567;55.684;37.570;2023-07-31T00:07:52;98381.59;;;20.69;49.21
70217;BME280;65567;55.684;37.570;2023-07-31T00:10:20;98386.41;;;20.66;49.36
70217;BME280;65567;55.684;37.570;2023-07-31T00:12:46;98386.91;;;20.61;49.48
70217;BME280;65567;55.684;37.570;2023-07-31T00:15:14;98385.38;;;20.58;49.50
70217;BME280;65567;55.684;37.570;2023-07-31T00:17:40;98387.41;;;20.56;49.49
70217;BME280;65567;55.684;37.570;2023-07-31T00:20:06;98393.22;;;20.60;49.41
70217;BME280;65567;55.684;37.570;2023-07-31T00:22:32;98381.91;;;20.58;49.44
70217;BME280;65567;55.684;37.570;2023-07-31T00:24:58;98384.88;;;20.55;49.60
70217;BME280;65567;55.684;37.570;2023-07-31T00:27:25;98382.56;;;20.52;49.51
70217;BME280;65567;55.684;37.570;2023-07-31T00:29:51;98389.88;;;20.50;49.78
70217;BME280;65567;55.684;37.570;2023-07-31T00:32:18;98387.53;;;20.46;49.90
70217;BME280;65567;55.684;37.570;2023-07-31T00:34:43;98386.88;;;20.44;49.77
70217;BME280;65567;55.684;37.570;2023-07-31T00:37:10;98394.50;;;20.39;49.98
70217;BME280;65567;55.684;37.570;2023-07-31T00:39:36;98385.16;;;20.35;49.99
70217;BME280;65567;55.684;37.570;2023-07-31T00:42:02;98374.50;;;20.27;50.33
70217;BME280;65567;55.684;37.570;2023-07-31T00:44:28;98385.16;;;20.27;50.21
70217;BME280;65567;55.684;37.570;2023-07-31T00:46:54;98376.19;;;20.28;50.25
70217;BME280;65567;55.684;37.570;2023-07-31T00:49:22;98381.84;;;20.33;50.16
70217;BME280;65567;55.684;37.570;2023-07-31T00:51:48;98377.50;;;20.32;50.17
70217;BME280;65567;55.684;37.570;2023-07-31T00:54:15;98375.69;;;20.33;50.14
70217;BME280;65567;55.684;37.570;2023-07-31T00:56:41;98373.19;;;20.31;50.09
70217;BME280;65567;55.684;37.570;2023-07-31T00:59:10;98381.16;;;20.31;50.04
70217;BME280;65567;55.684;37.570;2023-07-31T01:01:37;98380.84;;;20.34;50.02
70217;BME280;65567;55.684;37.570;2023-07-31T01:04:04;98377.50;;;20.32;50.17
70217;BME280;65567;55.684;37.570;2023-07-31T01:06:47;98375.84;;;20.31;50.37
70217;BME280;65567;55.684;37.570;2023-07-31T01:11:57;98383.16;;;20.29;50.42
70217;BME280;65567;55.684;37.570;2023-07-31T01:14:25;98380.66;;;20.27;50.37
70217;BME280;65567;55.684;37.570;2023-07-31T01:16:52;98385.97;;;20.27;50.47
70217;BME280;65567;55.684;37.570;2023-07-31T01:19:22;98379.81;;;20.27;50.37
70217;BME280;65567;55.684;37.570;2023-07-31T01:25:25;98375.47;;;20.18;50.65
70217;BME280;65567;55.684;37.570;2023-07-31T01:28:08;98372.13;;;20.16;50.68
70217;BME280;65567;55.684;37.570;2023-07-31T01:30:43;98370.97;;;20.18;50.68
70217;BME280;65567;55.684;37.570;2023-07-31T01:33:10;98370.16;;;20.18;50.73
70217;BME280;65567;55.684;37.570;2023-07-31T01:35:37;98382.97;;;20.22;50.87
70217;BME280;65567;55.684;37.570;2023-07-31T01:38:04;98377.81;;;20.21;50.70
70217;BME280;65567;55.684;37.570;2023-07-31T01:40:31;98384.63;;;20.23;50.76
70217;BME280;65567;55.684;37.570;2023-07-31T01:42:56;98393.13;;;20.27;50.86
70217;BME280;65567;55.684;37.570;2023-07-31T01:45:23;98384.16;;;20.28;50.59
70217;BME280;65567;55.684;37.570;2023-07-31T01:47:49;98380.50;;;20.29;50.84
70217;BME280;65567;55.684;37.570;2023-07-31T01:50:15;98377.88;;;20.37;50.92
70217;BME280;65567;55.684;37.570;2023-07-31T01:52:40;98367.22;;;20.45;50.59
70217;BME280;65567;55.684;37.570;2023-07-31T01:55:07;98373.94;;;20.66;50.33
70217;BME280;65567;55.684;37.570;2023-07-31T01:57:33;98377.66;;;20.82;50.00
70217;BME280;65567;55.684;37.570;2023-07-31T01:59:59;98380.66;;;20.95;49.73
70217;BME280;65567;55.684;37.570;2023-07-31T02:02:24;98378.16;;;21.10;49.35
70217;BME280;65567;55.684;37.570;2023-07-31T02:04:50;98379.31;;;21.32;48.71
70217;BME280;65567;55.684;37.570;2023-07-31T02:07:16;98378.63;;;21.55;48.43
70217;BME280;65567;55.684;37.570;2023-07-31T02:09:42;98380.28;;;21.72;47.75
70217;BME280;65567;55.684;37.570;2023-07-31T02:12:08;98378.03;;;21.92;47.44
70217;BME280;65567;55.684;37.570;2023-07-31T02:14:34;98390.66;;;22.15;47.26
70217;BME280;65567;55.684;37.570;2023-07-31T02:17:00;98381.69;;;22.39;46.59
70217;BME280;65567;55.684;37.570;2023-07-31T02:19:26;98381.03;;;22.69;45.54
70217;BME280;65567;55.684;37.570;2023-07-31T02:21:52;98382.72;;;22.93;45.07
70217;BME280;65567;55.684;37.570;2023-07-31T02:24:18;98376.84;;;23.21;44.68
70217;BME280;65567;55.684;37.570;2023-07-31T02:26:44;98372.75;;;23.48;44.04
70217;BME280;65567;55.684;37.570;2023-07-31T02:29:09;98371.09;;;23.77;43.31
70217;BME280;65567;55.684;37.570;2023-07-31T02:31:35;98377.88;;;24.03;42.65
70217;BME280;65567;55.684;37.570;2023-07-31T02:34:01;98375.72;;;24.28;42.22
70217;BME280;65567;55.684;37.570;2023-07-31T02:36:27;98373.59;;;24.60;41.59
70217;BME280;65567;55.684;37.570;2023-07-31T02:38:53;98378.69;;;24.91;40.60
70217;BME280;65567;55.684;37.570;2023-07-31T02:41:18;98372.97;;;25.23;40.01
70217;BME280;65567;55.684;37.570;2023-07-31T02:43:44;98378.97;;;25.47;39.34
70217;BME280;65567;55.684;37.570;2023-07-31T02:46:10;98378.13;;;25.75;39.11
70217;BME280;65567;55.684;37.570;2023-07-31T02:48:36;98375.59;;;26.01;38.65
70217;BME280;65567;55.684;37.570;2023-07-31T02:51:04;98380.72;;;26.31;38.36
70217;BME280;65567;55.684;37.570;2023-07-31T02:53:30;98383.25;;;26.53;37.40
70217;BME280;65567;55.684;37.570;2023-07-31T02:55:59;98376.69;;;26.62;37.10
70217;BME280;65567;55.684;37.570;2023-07-31T02:58:25;98383.53;;;26.71;36.52
70217;BME280;65567;55.684;37.570;2023-07-31T03:00:51;98382.13;;;26.89;36.63
70217;BME280;65567;55.684;37.570;2023-07-31T03:03:17;98376.16;;;27.14;35.88
70217;BME280;65567;55.684;37.570;2023-07-31T03:05:43;98376.97;;;27.34;35.60
70217;BME280;65567;55.684;37.570;2023-07-31T03:08:10;98368.94;;;27.55;35.20
70217;BME280;65567;55.684;37.570;2023-07-31T03:10:35;98374.06;;;27.69;34.70
70217;BME280;65567;55.684;37.570;2023-07-31T03:13:02;98370.97;;;27.79;34.65
70217;BME280;65567;55.684;37.570;2023-07-31T03:15:28;98378.78;;;27.94;34.33
70217;BME280;65567;55.684;37.570;2023-07-31T03:17:53;98368.94;;;28.27;33.83
70217;BME280;65567;55.684;37.570;2023-07-31T03:20:19;98368.16;;;28.58;33.30
70217;BME280;65567;55.684;37.570;2023-07-31T03:22:45;98372.91;;;29.01;32.69
70217;BME280;65567;55.684;37.570;2023-07-31T03:25:11;98371.31;;;29.44;32.31
70217;BME280;65567;55.684;37.570;2023-07-31T03:27:41;98369.28;;;29.83;31.57
70217;BME280;65567;55.684;37.570;2023-07-31T03:30:07;98368.59;;;30.07;30.96
70217;BME280;65567;55.684;37.570;2023-07-31T03:32:36;98367.97;;;30.42;30.39
70217;BME280;65567;55.684;37.570;2023-07-31T03:35:02;98370.81;;;30.65;30.03
70217;BME280;65567;55.684;37.570;2023-07-31T03:37:27;98367.78;;;30.86;29.77
70217;BME280;65567;55.684;37.570;2023-07-31T03:39:57;98362.03;;;30.94;29.37
70217;BME280;65567;55.684;37.570;2023-07-31T03:42:25;98372.22;;;31.10;29.58
70217;BME280;65567;55.684;37.570;2023-07-31T03:44:52;98363.78;;;31.42;28.96
70217;BME280;65567;55.684;37.570;2023-07-31T03:47:17;98369.56;;;31.82;28.58
70217;BME280;65567;55.684;37.570;2023-07-31T03:49:43;98365.59;;;32.13;28.17
70217;BME280;65567;55.684;37.570;2023-07-31T03:52:10;98355.06;;;32.40;27.80
70217;BME280;65567;55.684;37.570;2023-07-31T03:54:36;98361.09;;;32.59;27.47
70217;BME280;65567;55.684;37.570;2023-07-31T03:57:02;98358.72;;;32.75;26.94
70217;BME280;65567;55.684;37.570;2023-07-31T03:59:28;98367.59;;;32.87;26.92
70217;BME280;65567;55.684;37.570;2023-07-31T04:01:54;98366.69;;;32.99;26.44
70217;BME280;65567;55.684;37.570;2023-07-31T04:04:19;98371.06;;;33.00;26.63
70217;BME280;65567;55.684;37.570;2023-07-31T04:06:46;98377.13;;;33.07;26.24
70217;BME280;65567;55.684;37.570;2023-07-31T04:09:12;98371.22;;;33.10;26.10
70217;BME280;65567;55.684;37.570;2023-07-31T04:11:38;98371.72;;;33.07;26.26
70217;BME280;65567;55.684;37.570;2023-07-31T04:14:05;98370.72;;;33.13;26.29
70217;BME280;65567;55.684;37.570;2023-07-31T04:16:30;98382.91;;;33.10;25.94
70217;BME280;65567;55.684;37.570;2023-07-31T04:18:56;98383.16;;;33.09;26.15
70217;BME280;65567;55.684;37.570;2023-07-31T04:21:22;98383.25;;;33.14;26.24
70217;BME280;65567;55.684;37.570;2023-07-31T04:23:48;98385.38;;;33.12;25.87
70217;BME280;65567;55.684;37.570;2023-07-31T04:26:14;98373.22;;;33.32;26.19
70217;BME280;65567;55.684;37.570;2023-07-31T04:28:40;98377.06;;;33.53;25.61
70217;BME280;65567;55.684;37.570;2023-07-31T04:31:06;98379.25;;;33.73;25.30
70217;BME280;65567;55.684;37.570;2023-07-31T04:33:32;98386.59;;;33.89;24.88
70217;BME280;65567;55.684;37.570;2023-07-31T04:35:59;98388.25;;;33.96;25.11
70217;BME280;65567;55.684;37.570;2023-07-31T04:38:24;98388.91;;;34.03;25.09
70217;BME280;65567;55.684;37.570;2023-07-31T04:40:50;98384.19;;;34.37;24.58
70217;BME280;65567;55.684;37.570;2023-07-31T04:43:19;98383.00;;;34.55;24.13
70217;BME280;65567;55.684;37.570;2023-07-31T04:45:45;98387.50;;;34.67;24.09
70217;BME280;65567;55.684;37.570;2023-07-31T04:48:13;98380.94;;;34.63;24.00
70217;BME280;65567;55.684;37.570;2023-07-31T04:50:39;98387.34;;;34.51;23.85
70217;BME280;65567;55.684;37.570;2023-07-31T04:53:05;98386.41;;;34.68;23.81
70217;BME280;65567;55.684;37.570;2023-07-31T04:55:31;98388.66;;;34.76;24.03
70217;BME280;65567;55.684;37.570;2023-07-31T04:57:58;98391.34;;;34.98;23.75
70217;BME280;65567;55.684;37.570;2023-07-31T05:00:24;98403.22;;;35.14;23.21
70217;BME280;65567;55.684;37.570;2023-07-31T05:02:50;98392.38;;;35.24;23.49
70217;BME280;65567;55.684;37.570;2023-07-31T05:05:16;98397.44;;;35.38;23.03
70217;BME280;65567;55.684;37.570;2023-07-31T05:07:41;98396.78;;;35.31;22.96
70217;BME280;65567;55.684;37.570;2023-07-31T05:10:07;98397.94;;;35.35;23.23
70217;BME280;65567;55.684;37.570;2023-07-31T05:12:34;98386.72;;;35.31;23.33
70217;BME280;65567;55.684;37.570;2023-07-31T05:14:59;98395.25;;;35.40;23.23
70217;BME280;65567;55.684;37.570;2023-07-31T05:17:25;98389.16;;;35.65;22.96
70217;BME280;65567;55.684;37.570;2023-07-31T05:19:51;98392.84;;;35.86;22.80
70217;BME280;65567;55.684;37.570;2023-07-31T05:22:17;98397.34;;;36.13;22.73
70217;BME280;65567;55.684;37.570;2023-07-31T05:24:43;98391.38;;;36.27;22.05
70217;BME280;65567;55.684;37.570;2023-07-31T05:27:08;98387.66;;;36.43;22.22
70217;BME280;65567;55.684;37.570;2023-07-31T05:29:35;98389.88;;;36.57;22.01
70217;BME280;65567;55.684;37.570;2023-07-31T05:32:01;98392.06;;;36.70;21.86
70217;BME280;65567;55.684;37.570;2023-07-31T05:34:27;98386.06;;;36.68;21.87
70217;BME280;65567;55.684;37.570;2023-07-31T05:36:53;98397.78;;;36.58;21.84
70217;BME280;65567;55.684;37.570;2023-07-31T05:39:18;98391.22;;;36.49;22.01
70217;BME280;65567;55.684;37.570;2023-07-31T05:41:45;98395.03;;;36.58;22.04
70217;BME280;65567;55.684;37.570;2023-07-31T05:44:11;98390.97;;;36.71;21.75
70217;BME280;65567;55.684;37.570;2023-07-31T05:46:37;98393.22;;;36.90;21.90
70217;BME280;65567;55.684;37.570;2023-07-31T05:49:02;98398.16;;;37.03;21.49
70217;BME280;65567;55.684;37.570;2023-07-31T05:51:28;98407.41;;;36.92;21.62
70217;BME280;65567;55.684;37.570;2023-07-31T05:53:54;98398.13;;;36.87;21.07
70217;BME280;65567;55.684;37.570;2023-07-31T05:56:20;98395.69;;;36.91;21.12
70217;BME280;65567;55.684;37.570;2023-07-31T05:58:46;98403.06;;;36.96;20.86
70217;BME280;65567;55.684;37.570;2023-07-31T06:01:12;98391.56;;;36.99;21.01
70217;BME280;65567;55.684;37.570;2023-07-31T06:03:38;98392.13;;;37.11;20.73
70217;BME280;65567;55.684;37.570;2023-07-31T06:06:03;98392.69;;;37.24;20.98
70217;BME280;65567;55.684;37.570;2023-07-31T06:08:29;98395.97;;;37.41;20.11
70217;BME280;65567;55.684;37.570;2023-07-31T06:10:54;98404.16;;;37.41;20.26
70217;BME280;65567;55.684;37.570;2023-07-31T06:13:20;98395.41;;;37.44;20.00
70217;BME280;65567;55.684;37.570;2023-07-31T06:15:46;98389.41;;;37.52;19.74
70217;BME280;65567;55.684;37.570;2023-07-31T06:18:14;98404.41;;;37.65;19.57
70217;BME280;65567;55.684;37.570;2023-07-31T06:20:40;98402.19;;;37.83;19.38
70217;BME280;65567;55.684;37.570;2023-07-31T06:23:06;98401.34;;;37.98;19.26
70217;BME280;65567;55.684;37.570;2023-07-31T06:25:32;98399.69;;;38.02;18.92
70217;BME280;65567;55.684;37.570;2023-07-31T06:27:58;98396.44;;;37.90;19.63
70217;BME280;65567;55.684;37.570;2023-07-31T06:30:24;98398.09;;;37.85;19.19
70217;BME280;65567;55.684;37.570;2023-07-31T06:32:50;98403.81;;;37.94;19.57
70217;BME280;65567;55.684;37.570;2023-07-31T06:35:16;98398.06;;;37.96;19.38
70217;BME280;65567;55.684;37.570;2023-07-31T06:37:42;98399.09;;;38.10;19.64
70217;BME280;65567;55.684;37.570;2023-07-31T06:40:09;98406.19;;;38.22;19.39
70217;BME280;65567;55.684;37.570;2023-07-31T06:42:36;98407.81;;;38.28;19.27
70217;BME280;65567;55.684;37.570;2023-07-31T06:45:02;98402.56;;;38.37;19.38
70217;BME280;65567;55.684;37.570;2023-07-31T06:47:28;98405.03;;;38.38;18.77
70217;BME280;65567;55.684;37.570;2023-07-31T06:49:55;98408.34;;;38.30;18.65
70217;BME280;65567;55.684;37.570;2023-07-31T06:52:21;98412.00;;;38.05;19.09
70217;BME280;65567;55.684;37.570;2023-07-31T06:55:00;98412.34;;;37.82;19.23
70217;BME280;65567;55.684;37.570;2023-07-31T06:57:27;98407.16;;;37.65;19.39
70217;BME280;65567;55.684;37.570;2023-07-31T06:59:52;98404.13;;;37.72;19.50
70217;BME280;65567;55.684;37.570;2023-07-31T07:02:18;98410.66;;;37.76;19.57
70217;BME280;65567;55.684;37.570;2023-07-31T07:04:44;98404.94;;;37.73;19.17
70217;BME280;65567;55.684;37.570;2023-07-31T07:07:12;98410.69;;;37.81;19.21
70217;BME280;65567;55.684;37.570;2023-07-31T07:09:38;98411.47;;;37.87;19.21
70217;BME280;65567;55.684;37.570;2023-07-31T07:12:04;98401.84;;;38.05;19.14
70217;BME280;65567;55.684;37.570;2023-07-31T07:14:29;98409.72;;;38.17;18.53
70217;BME280;65567;55.684;37.570;2023-07-31T07:16:55;98401.00;;;38.15;18.76
70217;BME280;65567;55.684;37.570;2023-07-31T07:19:21;98402.94;;;38.04;18.38
70217;BME280;65567;55.684;37.570;2023-07-31T07:21:49;98408.44;;;37.94;18.50
70217;BME280;65567;55.684;37.570;2023-07-31T07:24:15;98411.78;;;37.70;18.38
70217;BME280;65567;55.684;37.570;2023-07-31T07:26:41;98403.56;;;37.70;18.65
70217;BME280;65567;55.684;37.570;2023-07-31T07:29:07;98404.13;;;37.82;19.23
70217;BME280;65567;55.684;37.570;2023-07-31T07:31:33;98410.91;;;38.00;18.45
70217;BME280;65567;55.684;37.570;2023-07-31T07:33:59;98411.44;;;38.02;18.37
70217;BME280;65567;55.684;37.570;2023-07-31T07:36:27;98409.50;;;38.13;17.75
70217;BME280;65567;55.684;37.570;2023-07-31T07:38:53;98401.56;;;38.12;17.97
70217;BME280;65567;55.684;37.570;2023-07-31T07:41:19;98402.34;;;38.23;17.72
70217;BME280;65567;55.684;37.570;2023-07-31T07:43:44;98407.84;;;38.12;17.35
70217;BME280;65567;55.684;37.570;2023-07-31T07:46:10;98414.97;;;38.13;18.21
70217;BME280;65567;55.684;37.570;2023-07-31T07:48:37;98419.88;;;38.16;17.73
70217;BME280;65567;55.684;37.570;2023-07-31T07:51:03;98419.88;;;38.27;17.52
70217;BME280;65567;55.684;37.570;2023-07-31T07:53:28;98418.72;;;38.38;17.98
70217;BME280;65567;55.684;37.570;2023-07-31T07:55:54;98408.81;;;38.47;17.59
70217;BME280;65567;55.684;37.570;2023-07-31T07:58:20;98414.78;;;38.55;17.80
70217;BME280;65567;55.684;37.570;2023-07-31T08:00:50;98413.06;;;38.74;18.14
70217;BME280;65567;55.684;37.570;2023-07-31T08:03:16;98413.78;;;38.90;17.30
70217;BME280;65567;55.684;37.570;2023-07-31T08:05:44;98414.69;;;38.75;17.39
70217;BME280;65567;55.684;37.570;2023-07-31T08:08:14;98410.38;;;38.59;17.80
70217;BME280;65567;55.684;37.570;2023-07-31T08:10:40;98417.84;;;38.43;17.35
70217;BME280;65567;55.684;37.570;2023-07-31T08:13:06;98408.88;;;38.37;18.01
70217;BME280;65567;55.684;37.570;2023-07-31T08:15:32;98417.84;;;38.43;18.16
70217;BME280;65567;55.684;37.570;2023-07-31T08:17:58;98416.25;;;38.31;18.35
70217;BME280;65567;55.684;37.570;2023-07-31T08:20:23;98411.06;;;38.25;18.16
70217;BME280;65567;55.684;37.570;2023-07-31T08:22:50;98403.69;;;38.25;18.26
70217;BME280;65567;55.684;37.570;2023-07-31T08:25:16;98419.28;;;38.19;18.32
70217;BME280;65567;55.684;37.570;2023-07-31T08:27:45;98412.44;;;38.32;18.04
70217;BME280;65567;55.684;37.570;2023-07-31T08:30:12;98415.19;;;38.32;18.10
70217;BME280;65567;55.684;37.570;2023-07-31T08:32:38;98420.13;;;38.20;18.07
70217;BME280;65567;55.684;37.570;2023-07-31T08:35:05;98423.97;;;38.14;18.01
70217;BME280;65567;55.684;37.570;2023-07-31T08:37:31;98420.72;;;38.07;18.20
70217;BME280;65567;55.684;37.570;2023-07-31T08:39:57;98417.16;;;38.11;17.55
70217;BME280;65567;55.684;37.570;2023-07-31T08:42:23;98420.69;;;38.17;17.32
70217;BME280;65567;55.684;37.570;2023-07-31T08:44:51;98417.13;;;38.27;18.08
70217;BME280;65567;55.684;37.570;2023-07-31T08:47:19;98426.34;;;38.41;17.84
70217;BME280;65567;55.684;37.570;2023-07-31T08:49:46;98430.66;;;38.58;18.09
70217;BME280;65567;55.684;37.570;2023-07-31T08:52:13;98427.00;;;38.78;17.72
70217;BME280;65567;55.684;37.570;2023-07-31T08:54:39;98421.75;;;38.87;17.85
70217;BME280;65567;55.684;37.570;2023-07-31T08:57:06;98427.19;;;38.92;17.09
70217;BME280;65567;55.684;37.570;2023-07-31T08:59:34;98427.25;;;38.81;17.11
70217;BME280;65567;55.684;37.570;2023-07-31T09:02:05;98425.44;;;38.56;17.34
70217;BME280;65567;55.684;37.570;2023-07-31T09:04:32;98425.72;;;38.55;17.78
70217;BME280;65567;55.684;37.570;2023-07-31T09:07:01;98428.50;;;38.49;17.36
70217;BME280;65567;55.684;37.570;2023-07-31T09:09:29;98419.81;;;38.37;17.65
70217;BME280;65567;55.684;37.570;2023-07-31T09:11:55;98422.00;;;38.35;17.68
70217;BME280;65567;55.684;37.570;2023-07-31T09:14:22;98420.84;;;38.51;17.58
70217;BME280;65567;55.684;37.570;2023-07-31T09:16:56;98424.53;;;38.71;18.31
70217;BME280;65567;55.684;37.570;2023-07-31T09:19:32;98415.81;;;38.64;17.68
70217;BME280;65567;55.684;37.570;2023-07-31T09:21:59;98419.81;;;38.37;17.78
70217;BME280;65567;55.684;37.570;2023-07-31T09:24:30;98416.03;;;38.28;18.39
70217;BME280;65567;55.684;37.570;2023-07-31T09:26:57;98424.19;;;38.38;18.43
70217;BME280;65567;55.684;37.570;2023-07-31T09:29:24;98419.19;;;38.50;17.73
70217;BME280;65567;55.684;37.570;2023-07-31T09:31:53;98418.03;;;38.62;17.59
70217;BME280;65567;55.684;37.570;2023-07-31T09:34:19;98419.09;;;38.66;17.38
70217;BME280;65567;55.684;37.570;2023-07-31T09:36:49;98421.38;;;38.48;17.80
70217;BME280;65567;55.684;37.570;2023-07-31T09:39:17;98419.88;;;38.27;17.62
70217;BME280;65567;55.684;37.570;2023-07-31T09:41:47;98415.28;;;37.96;18.57
70217;BME280;65567;55.684;37.570;2023-07-31T09:44:18;98418.31;;;37.74;18.33
70217;BME280;65567;55.684;37.570;2023-07-31T09:46:44;98419.97;;;37.65;18.36
70217;BME280;65567;55.684;37.570;2023-07-31T09:49:11;98421.06;;;37.69;18.77
70217;BME280;65567;55.684;37.570;2023-07-31T09:51:39;98417.22;;;37.75;18.66
70217;BME280;65567;55.684;37.570;2023-07-31T09:54:16;98414.78;;;37.68;18.53
70217;BME280;65567;55.684;37.570;2023-07-31T09:56:46;98414.78;;;37.68;18.47
70217;BME280;65567;55.684;37.570;2023-07-31T09:59:15;98415.59;;;37.84;18.67
70217;BME280;65567;55.684;37.570;2023-07-31T10:01:43;98421.59;;;37.97;18.67
70217;BME280;65567;55.684;37.570;2023-07-31T10:04:10;98409.03;;;37.80;18.30
70217;BME280;65567;55.684;37.570;2023-07-31T10:06:38;98421.13;;;37.48;18.33
70217;BME280;65567;55.684;37.570;2023-07-31T10:09:08;98416.44;;;37.13;18.50
70217;BME280;65567;55.684;37.570;2023-07-31T10:11:53;98417.19;;;36.77;18.86
70217;BME280;65567;55.684;37.570;2023-07-31T10:14:25;98421.38;;;36.27;18.66
70217;BME280;65567;55.684;37.570;2023-07-31T10:16:52;98420.50;;;35.68;19.96
70217;BME280;65567;55.684;37.570;2023-07-31T10:19:19;98414.34;;;35.45;20.28
70217;BME280;65567;55.684;37.570;2023-07-31T10:21:48;98428.13;;;35.33;21.55
70217;BME280;65567;55.684;37.570;2023-07-31T10:24:14;98420.22;;;35.32;21.16
70217;BME280;65567;55.684;37.570;2023-07-31T10:26:45;98417.00;;;35.35;20.85
70217;BME280;65567;55.684;37.570;2023-07-31T10:29:14;98421.13;;;35.43;20.23
70217;BME280;65567;55.684;37.570;2023-07-31T10:31:41;98420.94;;;35.49;20.54
70217;BME280;65567;55.684;37.570;2023-07-31T10:34:07;98419.13;;;35.65;20.57
70217;BME280;65567;55.684;37.570;2023-07-31T10:36:33;98418.63;;;35.73;20.93
70217;BME280;65567;55.684;37.570;2023-07-31T10:38:59;98416.22;;;35.77;20.88
70217;BME280;65567;55.684;37.570;2023-07-31T10:41:31;98420.53;;;35.73;20.56
70217;BME280;65567;55.684;37.570;2023-07-31T10:44:00;98418.25;;;35.60;20.93
70217;BME280;65567;55.684;37.570;2023-07-31T10:46:28;98424.13;;;35.41;20.74
70217;BME280;65567;55.684;37.570;2023-07-31T10:48:58;98422.84;;;35.21;20.74
70217;BME280;65567;55.684;37.570;2023-07-31T10:51:33;98423.75;;;35.00;20.90
70217;BME280;65567;55.684;37.570;2023-07-31T10:54:12;98426.97;;;34.69;21.22
70217;BME280;65567;55.684;37.570;2023-07-31T10:56:39;98428.19;;;34.34;20.94
70217;BME280;65567;55.684;37.570;2023-07-31T10:59:05;98421.53;;;34.03;20.93
70217;BME280;65567;55.684;37.570;2023-07-31T11:01:57;98422.81;;;33.61;21.44
70217;BME280;65567;55.684;37.570;2023-07-31T11:04:26;98420.56;;;33.24;22.16
70217;BME280;65567;55.684;37.570;2023-07-31T11:06:59;98425.88;;;33.02;22.47
70217;BME280;65567;55.684;37.570;2023-07-31T11:09:32;98422.59;;;32.71;22.90
70217;BME280;65567;55.684;37.570;2023-07-31T11:11:59;98425.84;;;32.56;22.77
70217;BME280;65567;55.684;37.570;2023-07-31T11:14:25;98413.38;;;32.43;22.87
70217;BME280;65567;55.684;37.570;2023-07-31T11:16:51;98413.06;;;32.27;23.51
70217;BME280;65567;55.684;37.570;2023-07-31T11:19:26;98415.22;;;32.25;24.29
70217;BME280;65567;55.684;37.570;2023-07-31T11:21:52;98414.72;;;32.28;24.27
70217;BME280;65567;55.684;37.570;2023-07-31T11:24:19;98410.31;;;32.39;24.38
70217;BME280;65567;55.684;37.570;2023-07-31T11:26:50;98412.91;;;32.46;24.32
70217;BME280;65567;55.684;37.570;2023-07-31T11:29:16;98399.13;;;32.36;24.12
70217;BME280;65567;55.684;37.570;2023-07-31T11:31:45;98415.03;;;32.44;23.95
70217;BME280;65567;55.684;37.570;2023-07-31T11:34:12;98408.91;;;32.37;24.34
70217;BME280;65567;55.684;37.570;2023-07-31T11:36:37;98416.84;;;32.26;24.15
70217;BME280;65567;55.684;37.570;2023-07-31T11:39:08;98413.72;;;32.18;24.54
70217;BME280;65567;55.684;37.570;2023-07-31T11:41:34;98408.97;;;32.13;25.00
70217;BME280;65567;55.684;37.570;2023-07-31T11:44:01;98414.28;;;32.08;25.52
70217;BME280;65567;55.684;37.570;2023-07-31T11:46:30;98414.16;;;32.03;25.29
70217;BME280;65567;55.684;37.570;2023-07-31T11:49:00;98424.88;;;31.98;25.69
70217;BME280;65567;55.684;37.570;2023-07-31T11:51:27;98409.84;;;31.78;26.23
70217;BME280;65567;55.684;37.570;2023-07-31T11:53:57;98411.91;;;31.52;26.28
70217;BME280;65567;55.684;37.570;2023-07-31T11:56:24;98417.44;;;31.45;27.04
70217;BME280;65567;55.684;37.570;2023-07-31T11:58:58;98421.22;;;31.44;26.85
70217;BME280;65567;55.684;37.570;2023-07-31T12:01:26;98423.56;;;31.41;26.77
70217;BME280;65567;55.684;37.570;2023-07-31T12:03:56;98410.97;;;31.35;27.00
70217;BME280;65567;55.684;37.570;2023-07-31T12:06:32;98415.22;;;31.30;26.88
70217;BME280;65567;55.684;37.570;2023-07-31T12:09:04;98423.50;;;31.05;27.32
70217;BME280;65567;55.684;37.570;2023-07-31T12:11:30;98424.03;;;30.95;27.33
70217;BME280;65567;55.684;37.570;2023-07-31T12:13:56;98415.94;;;30.95;27.55
70217;BME280;65567;55.684;37.570;2023-07-31T12:16:26;98423.63;;;30.80;27.77
70217;BME280;65567;55.684;37.570;2023-07-31T12:18:54;98421.22;;;30.90;27.19
70217;BME280;65567;55.684;37.570;2023-07-31T12:21:19;98431.06;;;30.96;27.41
70217;BME280;65567;55.684;37.570;2023-07-31T12:23:45;98428.97;;;30.98;27.72
70217;BME280;65567;55.684;37.570;2023-07-31T12:26:12;98432.47;;;30.87;27.89
70217;BME280;65567;55.684;37.570;2023-07-31T12:28:49;98435.78;;;30.89;28.04
70217;BME280;65567;55.684;37.570;2023-07-31T12:31:18;98425.78;;;30.90;27.80
70217;BME280;65567;55.684;37.570;2023-07-31T12:33:48;98427.53;;;30.84;27.77
70217;BME280;65567;55.684;37.570;2023-07-31T12:36:20;98427.13;;;30.69;27.76
70217;BME280;65567;55.684;37.570;2023-07-31T12:38:46;98427.88;;;30.76;27.48
70217;BME280;65567;55.684;37.570;2023-07-31T12:41:12;98426.88;;;30.70;27.56
70217;BME280;65567;55.684;37.570;2023-07-31T12:43:40;98433.56;;;30.68;27.72
70217;BME280;65567;55.684;37.570;2023-07-31T12:46:06;98429.47;;;30.77;28.00
70217;BME280;65567;55.684;37.570;2023-07-31T12:48:33;98435.88;;;30.83;27.91
70217;BME280;65567;55.684;37.570;2023-07-31T12:50:59;98429.66;;;30.94;27.82
70217;BME280;65567;55.684;37.570;2023-07-31T12:53:25;98432.28;;;31.01;27.47
70217;BME280;65567;55.684;37.570;2023-07-31T12:55:51;98441.19;;;30.89;27.63